sensor_id;sensor_type;location;lat;lon;timestamp;pressure;altitude;pressure_sealevel;temperature;humidity
7768;BME280;3928;42.626;23.382;2023-03-23T00:01:02;94134.72;;;10.14;87.25
7768;BME280;3928;42.626;23.382;2023-03-23T00:03:30;94129.50;;;10.20;85.94
7768;BME280;3928;42.626;23.382;2023-03-23T00:05:57;94130.28;;;10.25;85.82
7768;BME280;3928;42.626;23.382;2023-03-23T00:08:30;94124.19;;;10.29;84.13
7768;BME280;3928;42.626;23.382;2023-03-23T00:10:57;94130.09;;;10.34;83.20
7768;BME280;3928;42.626;23.382;2023-03-23T00:13:28;94126.53;;;10.41;83.35
7768;BME280;3928;42.626;23.382;2023-03-23T00:15:56;94135.84;;;10.47;82.89
7768;BME280;3928;42.626;23.382;2023-03-23T00:18:23;94137.44;;;10.54;83.05
7768;BME280;3928;42.626;23.382;2023-03-23T00:20:52;94133.81;;;10.63;80.73
7768;BME280;3928;42.626;23.382;2023-03-23T00:23:21;94112.75;;;10.47;80.67
7768;BME280;3928;42.626;23.382;2023-03-23T00:25:49;94127.75;;;10.68;80.03
7768;BME280;3928;42.626;23.382;2023-03-23T00:28:19;94138.78;;;10.72;79.21
7768;BME280;3928;42.626;23.382;2023-03-23T00:30:55;94139.66;;;10.71;78.09
7768;BME280;3928;42.626;23.382;2023-03-23T00:33:23;94141.31;;;10.73;77.95
7768;BME280;3928;42.626;23.382;2023-03-23T00:35:52;94138.72;;;10.75;77.68
7768;BME280;3928;42.626;23.382;2023-03-23T00:38:20;94130.34;;;10.65;77.85
7768;BME280;3928;42.626;23.382;2023-03-23T00:40:47;94153.22;;;10.77;77.44
7768;BME280;3928;42.626;23.382;2023-03-23T00:43:14;94140.59;;;10.67;76.54
7768;BME280;3928;42.626;23.382;2023-03-23T00:45:42;94159.25;;;10.75;76.92
7768;BME280;3928;42.626;23.382;2023-03-23T00:48:11;94172.03;;;10.76;76.80
7768;BME280;3928;42.626;23.382;2023-03-23T00:50:38;94158.47;;;10.71;76.10
7768;BME280;3928;42.626;23.382;2023-03-23T00:53:05;94161.97;;;10.67;76.10
7768;BME280;3928;42.626;23.382;2023-03-23T00:55:32;94164.63;;;10.63;77.14
7768;BME280;3928;42.626;23.382;2023-03-23T00:58:00;94163.00;;;10.59;76.20
7768;BME280;3928;42.626;23.382;2023-03-23T01:00:27;94165.66;;;10.52;76.77
7768;BME280;3928;42.626;23.382;2023-03-23T01:02:54;94156.53;;;10.38;77.26
7768;BME280;3928;42.626;23.382;2023-03-23T01:05:22;94169.44;;;10.35;77.55
7768;BME280;3928;42.626;23.382;2023-03-23T01:07:49;94176.59;;;10.14;79.37
7768;BME280;3928;42.626;23.382;2023-03-23T01:10:16;94163.84;;;10.10;79.51
7768;BME280;3928;42.626;23.382;2023-03-23T01:12:43;94165.78;;;9.97;80.90
7768;BME280;3928;42.626;23.382;2023-03-23T01:15:13;94160.50;;;10.05;80.85
7768;BME280;3928;42.626;23.382;2023-03-23T01:17:43;94154.63;;;10.00;80.99
7768;BME280;3928;42.626;23.382;2023-03-23T01:20:10;94158.47;;;10.25;80.10
7768;BME280;3928;42.626;23.382;2023-03-23T01:22:39;94155.00;;;10.28;81.30
7768;BME280;3928;42.626;23.382;2023-03-23T01:25:08;94152.44;;;10.28;81.39
7768;BME280;3928;42.626;23.382;2023-03-23T01:27:35;94156.94;;;10.13;82.32
7768;BME280;3928;42.626;23.382;2023-03-23T01:30:03;94158.13;;;9.95;83.99
7768;BME280;3928;42.626;23.382;2023-03-23T01:32:31;94142.34;;;9.66;86.00
7768;BME280;3928;42.626;23.382;2023-03-23T01:34:58;94140.91;;;9.50;88.65
7768;BME280;3928;42.626;23.382;2023-03-23T01:37:25;94134.88;;;9.54;89.30
7768;BME280;3928;42.626;23.382;2023-03-23T01:39:55;94139.06;;;9.58;90.81
7768;BME280;3928;42.626;23.382;2023-03-23T01:42:23;94139.81;;;9.64;91.64
7768;BME280;3928;42.626;23.382;2023-03-23T01:45:24;94132.16;;;9.63;93.67
7768;BME280;3928;42.626;23.382;2023-03-23T01:47:56;94135.47;;;9.68;94.17
7768;BME280;3928;42.626;23.382;2023-03-23T01:50:26;94131.69;;;9.90;93.25
7768;BME280;3928;42.626;23.382;2023-03-23T01:52:56;94128.03;;;10.07;92.63
7768;BME280;3928;42.626;23.382;2023-03-23T01:55:26;94131.19;;;10.21;92.04
7768;BME280;3928;42.626;23.382;2023-03-23T01:57:54;94108.94;;;10.23;92.10
7768;BME280;3928;42.626;23.382;2023-03-23T02:00:21;94074.78;;;10.18;90.31
7768;BME280;3928;42.626;23.382;2023-03-23T02:02:49;94106.03;;;10.40;89.87
7768;BME280;3928;42.626;23.382;2023-03-23T02:05:22;94120.00;;;10.70;88.94
7768;BME280;3928;42.626;23.382;2023-03-23T02:07:51;94125.84;;;10.78;87.86
7768;BME280;3928;42.626;23.382;2023-03-23T02:10:18;94133.41;;;10.84;86.67
7768;BME280;3928;42.626;23.382;2023-03-23T02:12:47;94122.09;;;10.93;85.63
7768;BME280;3928;42.626;23.382;2023-03-23T02:15:14;94112.03;;;10.83;85.02
7768;BME280;3928;42.626;23.382;2023-03-23T02:17:45;94129.81;;;10.93;84.74
7768;BME280;3928;42.626;23.382;2023-03-23T02:20:23;94111.28;;;10.77;85.53
7768;BME280;3928;42.626;23.382;2023-03-23T02:23:10;94129.97;;;10.85;85.97
7768;BME280;3928;42.626;23.382;2023-03-23T02:25:55;94126.66;;;10.80;85.66
7768;BME280;3928;42.626;23.382;2023-03-23T02:28:34;94127.41;;;10.83;85.21
7768;BME280;3928;42.626;23.382;2023-03-23T02:31:27;94130.94;;;10.79;85.65
7768;BME280;3928;42.626;23.382;2023-03-23T02:34:07;94126.94;;;10.65;85.36
7768;BME280;3928;42.626;23.382;2023-03-23T02:36:38;94122.84;;;10.56;86.11
7768;BME280;3928;42.626;23.382;2023-03-23T02:39:10;94121.13;;;10.57;86.41
7768;BME280;3928;42.626;23.382;2023-03-23T02:41:42;94127.78;;;10.65;86.28
7768;BME280;3928;42.626;23.382;2023-03-23T02:44:10;94130.22;;;10.73;86.08
7768;BME280;3928;42.626;23.382;2023-03-23T02:46:39;94142.09;;;10.77;84.78
7768;BME280;3928;42.626;23.382;2023-03-23T02:49:09;94131.91;;;10.74;84.23
7768;BME280;3928;42.626;23.382;2023-03-23T02:51:38;94136.94;;;10.78;84.21
7768;BME280;3928;42.626;23.382;2023-03-23T02:54:06;94143.91;;;10.72;83.31
7768;BME280;3928;42.626;23.382;2023-03-23T02:56:35;94154.28;;;10.67;82.87
7768;BME280;3928;42.626;23.382;2023-03-23T02:59:02;94152.59;;;10.65;83.35
7768;BME280;3928;42.626;23.382;2023-03-23T03:01:50;94149.53;;;10.47;84.06
7768;BME280;3928;42.626;23.382;2023-03-23T03:04:23;94158.84;;;10.51;84.60
7768;BME280;3928;42.626;23.382;2023-03-23T03:07:01;94165.72;;;10.49;84.17
7768;BME280;3928;42.626;23.382;2023-03-23T03:09:33;94159.88;;;10.41;84.54
7768;BME280;3928;42.626;23.382;2023-03-23T03:12:09;94165.38;;;10.20;84.74
7768;BME280;3928;42.626;23.382;2023-03-23T03:14:43;94181.88;;;10.04;85.36
7768;BME280;3928;42.626;23.382;2023-03-23T03:17:19;94172.56;;;10.00;85.50
7768;BME280;3928;42.626;23.382;2023-03-23T03:19:50;94170.75;;;10.05;83.44
7768;BME280;3928;42.626;23.382;2023-03-23T03:22:19;94183.53;;;10.06;84.01
7768;BME280;3928;42.626;23.382;2023-03-23T03:24:48;94185.25;;;10.09;83.35
7768;BME280;3928;42.626;23.382;2023-03-23T03:27:18;94189.69;;;9.98;82.84
7768;BME280;3928;42.626;23.382;2023-03-23T03:29:53;94188.22;;;9.81;83.05
7768;BME280;3928;42.626;23.382;2023-03-23T03:32:25;94179.09;;;9.65;83.04
7768;BME280;3928;42.626;23.382;2023-03-23T03:34:59;94186.84;;;9.62;84.41
7768;BME280;3928;42.626;23.382;2023-03-23T03:37:26;94178.28;;;9.63;83.96
7768;BME280;3928;42.626;23.382;2023-03-23T03:39:53;94182.63;;;9.59;84.04
7768;BME280;3928;42.626;23.382;2023-03-23T03:42:19;94171.47;;;9.59;84.03
7768;BME280;3928;42.626;23.382;2023-03-23T03:44:46;94172.47;;;9.52;84.12
7768;BME280;3928;42.626;23.382;2023-03-23T03:47:13;94175.88;;;9.52;84.47
7768;BME280;3928;42.626;23.382;2023-03-23T03:49:40;94172.34;;;9.61;84.75
7768;BME280;3928;42.626;23.382;2023-03-23T03:52:08;94171.41;;;9.65;84.77
7768;BME280;3928;42.626;23.382;2023-03-23T03:54:35;94179.84;;;9.73;84.03
7768;BME280;3928;42.626;23.382;2023-03-23T03:57:02;94182.50;;;9.65;84.44
7768;BME280;3928;42.626;23.382;2023-03-23T03:59:30;94124.63;;;8.94;85.67
7768;BME280;3928;42.626;23.382;2023-03-23T04:01:58;94182.09;;;9.34;87.08
7768;BME280;3928;42.626;23.382;2023-03-23T04:04:24;94178.81;;;9.26;87.35
7768;BME280;3928;42.626;23.382;2023-03-23T04:06:51;94175.44;;;9.24;87.40
7768;BME280;3928;42.626;23.382;2023-03-23T04:09:19;94175.66;;;9.06;87.26
7768;BME280;3928;42.626;23.382;2023-03-23T04:11:46;94180.72;;;9.09;89.02
7768;BME280;3928;42.626;23.382;2023-03-23T04:14:13;94166.19;;;9.14;87.96
7768;BME280;3928;42.626;23.382;2023-03-23T04:16:40;94176.28;;;9.25;87.95
7768;BME280;3928;42.626;23.382;2023-03-23T04:19:09;94174.50;;;9.28;87.38
7768;BME280;3928;42.626;23.382;2023-03-23T04:21:35;94178.75;;;9.29;87.05
7768;BME280;3928;42.626;23.382;2023-03-23T04:24:02;94178.63;;;9.40;86.66
7768;BME280;3928;42.626;23.382;2023-03-23T04:26:31;94168.28;;;9.45;86.84
7768;BME280;3928;42.626;23.382;2023-03-23T04:28:58;94175.03;;;9.52;86.16
7768;BME280;3928;42.626;23.382;2023-03-23T04:31:24;94180.38;;;9.36;87.04
7768;BME280;3928;42.626;23.382;2023-03-23T04:33:51;94176.31;;;9.20;88.34
7768;BME280;3928;42.626;23.382;2023-03-23T04:36:18;94178.16;;;9.12;88.25
7768;BME280;3928;42.626;23.382;2023-03-23T04:38:48;94161.06;;;9.14;88.03
7768;BME280;3928;42.626;23.382;2023-03-23T04:41:15;94175.44;;;9.21;89.06
7768;BME280;3928;42.626;23.382;2023-03-23T04:43:43;94179.56;;;9.33;88.60
7768;BME280;3928;42.626;23.382;2023-03-23T04:46:10;94177.63;;;9.49;88.09
7768;BME280;3928;42.626;23.382;2023-03-23T04:48:37;94177.03;;;9.31;88.56
7768;BME280;3928;42.626;23.382;2023-03-23T04:51:05;94181.09;;;9.45;88.27
7768;BME280;3928;42.626;23.382;2023-03-23T04:53:33;94183.59;;;9.51;88.33
7768;BME280;3928;42.626;23.382;2023-03-23T04:56:00;94185.75;;;9.77;86.86
7768;BME280;3928;42.626;23.382;2023-03-23T04:58:27;94187.19;;;9.93;86.98
7768;BME280;3928;42.626;23.382;2023-03-23T05:00:56;94191.25;;;10.06;87.07
7768;BME280;3928;42.626;23.382;2023-03-23T05:03:23;94188.50;;;10.17;86.04
7768;BME280;3928;42.626;23.382;2023-03-23T05:05:50;94194.44;;;10.22;85.06
7768;BME280;3928;42.626;23.382;2023-03-23T05:08:18;94197.81;;;10.24;83.70
7768;BME280;3928;42.626;23.382;2023-03-23T05:10:50;94190.94;;;10.26;82.92
7768;BME280;3928;42.626;23.382;2023-03-23T05:13:18;94200.03;;;9.91;83.63
7768;BME280;3928;42.626;23.382;2023-03-23T05:15:45;94205.06;;;9.98;84.89
7768;BME280;3928;42.626;23.382;2023-03-23T05:18:14;94210.91;;;10.07;84.66
7768;BME280;3928;42.626;23.382;2023-03-23T05:20:42;94204.06;;;10.08;84.67
7768;BME280;3928;42.626;23.382;2023-03-23T05:23:09;94202.84;;;9.76;85.70
7768;BME280;3928;42.626;23.382;2023-03-23T05:25:36;94198.72;;;9.66;85.58
7768;BME280;3928;42.626;23.382;2023-03-23T05:28:05;94199.84;;;9.47;86.65
7768;BME280;3928;42.626;23.382;2023-03-23T05:30:32;94205.31;;;9.22;87.63
7768;BME280;3928;42.626;23.382;2023-03-23T05:33:00;94204.97;;;9.48;87.92
7768;BME280;3928;42.626;23.382;2023-03-23T05:35:29;94210.94;;;9.49;87.92
7768;BME280;3928;42.626;23.382;2023-03-23T05:37:56;94220.91;;;9.67;87.97
7768;BME280;3928;42.626;23.382;2023-03-23T05:40:23;94220.59;;;9.88;88.01
7768;BME280;3928;42.626;23.382;2023-03-23T05:42:52;94228.00;;;10.07;87.52
7768;BME280;3928;42.626;23.382;2023-03-23T05:45:20;94230.41;;;10.16;86.70
7768;BME280;3928;42.626;23.382;2023-03-23T05:47:48;94235.22;;;10.37;86.32
7768;BME280;3928;42.626;23.382;2023-03-23T05:50:15;94238.50;;;10.45;84.71
7768;BME280;3928;42.626;23.382;2023-03-23T05:52:44;94225.59;;;10.50;83.85
7768;BME280;3928;42.626;23.382;2023-03-23T05:55:11;94236.59;;;10.57;82.68
7768;BME280;3928;42.626;23.382;2023-03-23T05:57:40;94243.38;;;10.59;82.68
7768;BME280;3928;42.626;23.382;2023-03-23T06:00:08;94244.03;;;10.18;84.24
7768;BME280;3928;42.626;23.382;2023-03-23T06:02:46;94242.59;;;10.02;85.35
7768;BME280;3928;42.626;23.382;2023-03-23T06:05:14;94254.97;;;9.75;86.42
7768;BME280;3928;42.626;23.382;2023-03-23T06:07:41;94251.47;;;9.79;86.80
7768;BME280;3928;42.626;23.382;2023-03-23T06:10:10;94234.69;;;9.60;86.73
7768;BME280;3928;42.626;23.382;2023-03-23T06:12:37;94236.38;;;9.61;87.81
7768;BME280;3928;42.626;23.382;2023-03-23T06:15:05;94240.41;;;9.77;86.94
7768;BME280;3928;42.626;23.382;2023-03-23T06:17:33;94238.59;;;9.85;88.35
7768;BME280;3928;42.626;23.382;2023-03-23T06:20:01;94244.22;;;10.09;87.24
7768;BME280;3928;42.626;23.382;2023-03-23T06:22:35;94244.75;;;10.29;87.49
7768;BME280;3928;42.626;23.382;2023-03-23T06:25:03;94240.84;;;10.58;85.95
7768;BME280;3928;42.626;23.382;2023-03-23T06:27:32;94243.19;;;10.70;85.12
7768;BME280;3928;42.626;23.382;2023-03-23T06:29:59;94237.63;;;10.93;84.81
7768;BME280;3928;42.626;23.382;2023-03-23T06:32:28;94241.53;;;11.13;84.71
7768;BME280;3928;42.626;23.382;2023-03-23T06:34:56;94243.59;;;11.36;84.10
7768;BME280;3928;42.626;23.382;2023-03-23T06:37:23;94250.09;;;11.54;82.99
7768;BME280;3928;42.626;23.382;2023-03-23T06:39:50;94234.56;;;11.60;82.17
7768;BME280;3928;42.626;23.382;2023-03-23T06:42:17;94246.75;;;11.91;81.48
7768;BME280;3928;42.626;23.382;2023-03-23T06:44:45;94252.06;;;12.19;83.75
7768;BME280;3928;42.626;23.382;2023-03-23T06:47:12;94254.03;;;12.45;79.93
7768;BME280;3928;42.626;23.382;2023-03-23T06:49:39;94260.41;;;12.64;78.35
7768;BME280;3928;42.626;23.382;2023-03-23T06:52:06;94255.47;;;12.56;77.24
7768;BME280;3928;42.626;23.382;2023-03-23T06:54:33;94257.16;;;12.90;77.81
7768;BME280;3928;42.626;23.382;2023-03-23T06:57:00;94259.00;;;13.19;77.06
7768;BME280;3928;42.626;23.382;2023-03-23T06:59:27;94270.75;;;13.29;75.17
7768;BME280;3928;42.626;23.382;2023-03-23T07:01:56;94266.25;;;13.36;74.85
7768;BME280;3928;42.626;23.382;2023-03-23T07:04:22;94268.13;;;13.31;74.43
7768;BME280;3928;42.626;23.382;2023-03-23T07:06:49;94247.16;;;13.10;74.44
7768;BME280;3928;42.626;23.382;2023-03-23T07:09:17;94261.97;;;13.35;75.03
7768;BME280;3928;42.626;23.382;2023-03-23T07:11:43;94260.63;;;13.53;74.22
7768;BME280;3928;42.626;23.382;2023-03-23T07:14:12;94267.81;;;13.71;72.66
7768;BME280;3928;42.626;23.382;2023-03-23T07:16:40;94273.44;;;13.85;71.80
7768;BME280;3928;42.626;23.382;2023-03-23T07:19:09;94264.91;;;14.11;73.00
7768;BME280;3928;42.626;23.382;2023-03-23T07:21:35;94258.03;;;14.38;70.66
7768;BME280;3928;42.626;23.382;2023-03-23T07:26:47;94261.41;;;14.93;67.97
7768;BME280;3928;42.626;23.382;2023-03-23T07:29:14;94264.81;;;15.18;67.63
7768;BME280;3928;42.626;23.382;2023-03-23T07:31:41;94261.13;;;15.49;68.30
7768;BME280;3928;42.626;23.382;2023-03-23T07:34:09;94263.88;;;15.69;67.39
7768;BME280;3928;42.626;23.382;2023-03-23T07:36:36;94265.03;;;15.84;66.47
7768;BME280;3928;42.626;23.382;2023-03-23T07:39:03;94265.63;;;16.14;65.87
7768;BME280;3928;42.626;23.382;2023-03-23T07:41:30;94268.16;;;16.37;63.27
7768;BME280;3928;42.626;23.382;2023-03-23T07:43:57;94276.69;;;16.61;62.65
7768;BME280;3928;42.626;23.382;2023-03-23T07:46:24;94259.84;;;16.73;61.99
7768;BME280;3928;42.626;23.382;2023-03-23T07:48:51;94277.34;;;17.09;61.45
7768;BME280;3928;42.626;23.382;2023-03-23T07:51:19;94281.50;;;17.33;59.69
7768;BME280;3928;42.626;23.382;2023-03-23T07:53:46;94272.19;;;17.48;58.03
7768;BME280;3928;42.626;23.382;2023-03-23T07:56:14;94280.16;;;17.64;57.33
7768;BME280;3928;42.626;23.382;2023-03-23T07:58:44;94283.38;;;17.89;56.62
7768;BME280;3928;42.626;23.382;2023-03-23T08:01:11;94283.28;;;18.09;54.66
7768;BME280;3928;42.626;23.382;2023-03-23T08:03:38;94281.88;;;18.21;54.20
7768;BME280;3928;42.626;23.382;2023-03-23T08:06:05;94286.31;;;18.38;54.22
7768;BME280;3928;42.626;23.382;2023-03-23T08:08:33;94288.19;;;18.53;54.18
7768;BME280;3928;42.626;23.382;2023-03-23T08:11:01;94294.97;;;18.75;52.85
7768;BME280;3928;42.626;23.382;2023-03-23T08:13:28;94287.09;;;18.93;51.42
7768;BME280;3928;42.626;23.382;2023-03-23T08:15:54;94288.72;;;19.13;51.21
7768;BME280;3928;42.626;23.382;2023-03-23T08:18:22;94291.19;;;19.34;49.87
7768;BME280;3928;42.626;23.382;2023-03-23T08:20:49;94278.84;;;19.54;48.52
7768;BME280;3928;42.626;23.382;2023-03-23T08:23:16;94289.59;;;19.81;47.05
7768;BME280;3928;42.626;23.382;2023-03-23T08:25:44;94271.53;;;19.94;44.81
7768;BME280;3928;42.626;23.382;2023-03-23T08:28:11;94290.06;;;19.72;43.67
7768;BME280;3928;42.626;23.382;2023-03-23T08:30:39;94239.59;;;19.24;43.87
7768;BME280;3928;42.626;23.382;2023-03-23T08:33:07;94290.56;;;19.46;43.97
7768;BME280;3928;42.626;23.382;2023-03-23T08:35:35;94288.09;;;19.25;44.55
7768;BME280;3928;42.626;23.382;2023-03-23T08:38:03;94284.81;;;19.39;44.71
7768;BME280;3928;42.626;23.382;2023-03-23T08:40:29;94282.59;;;19.66;42.83
7768;BME280;3928;42.626;23.382;2023-03-23T08:42:59;94275.44;;;20.03;42.59
7768;BME280;3928;42.626;23.382;2023-03-23T08:45:26;94268.53;;;20.33;40.81
7768;BME280;3928;42.626;23.382;2023-03-23T08:47:53;94280.78;;;20.49;41.67
7768;BME280;3928;42.626;23.382;2023-03-23T08:50:23;94276.25;;;20.82;41.51
7768;BME280;3928;42.626;23.382;2023-03-23T08:52:50;94269.28;;;21.13;40.54
7768;BME280;3928;42.626;23.382;2023-03-23T08:55:17;94268.06;;;21.34;37.44
7768;BME280;3928;42.626;23.382;2023-03-23T08:57:44;94270.19;;;20.97;36.34
7768;BME280;3928;42.626;23.382;2023-03-23T09:00:18;94276.00;;;20.87;36.19
7768;BME280;3928;42.626;23.382;2023-03-23T09:02:48;94281.47;;;20.35;35.33
7768;BME280;3928;42.626;23.382;2023-03-23T09:05:16;94273.94;;;20.14;36.65
7768;BME280;3928;42.626;23.382;2023-03-23T09:07:46;94278.03;;;20.34;37.95
7768;BME280;3928;42.626;23.382;2023-03-23T09:10:14;94279.31;;;20.59;37.75
7768;BME280;3928;42.626;23.382;2023-03-23T09:12:42;94274.56;;;20.81;37.07
7768;BME280;3928;42.626;23.382;2023-03-23T09:15:14;94282.41;;;20.81;35.16
7768;BME280;3928;42.626;23.382;2023-03-23T09:17:42;94279.44;;;20.87;35.90
7768;BME280;3928;42.626;23.382;2023-03-23T09:20:11;94275.66;;;21.23;34.55
7768;BME280;3928;42.626;23.382;2023-03-23T09:22:39;94279.47;;;21.47;34.77
7768;BME280;3928;42.626;23.382;2023-03-23T09:25:07;94274.66;;;21.25;33.21
7768;BME280;3928;42.626;23.382;2023-03-23T09:27:35;94274.31;;;20.86;33.80
7768;BME280;3928;42.626;23.382;2023-03-23T09:30:05;94270.31;;;20.64;34.13
7768;BME280;3928;42.626;23.382;2023-03-23T09:32:34;94249.88;;;19.94;36.98
7768;BME280;3928;42.626;23.382;2023-03-23T09:35:03;94272.69;;;19.89;36.65
7768;BME280;3928;42.626;23.382;2023-03-23T09:37:30;94241.31;;;19.41;38.70
7768;BME280;3928;42.626;23.382;2023-03-23T09:39:58;94264.78;;;19.74;36.57
7768;BME280;3928;42.626;23.382;2023-03-23T09:42:36;94261.41;;;19.56;36.58
7768;BME280;3928;42.626;23.382;2023-03-23T09:45:15;94260.00;;;19.49;37.10
7768;BME280;3928;42.626;23.382;2023-03-23T09:47:54;94257.78;;;20.08;37.18
7768;BME280;3928;42.626;23.382;2023-03-23T09:50:28;94264.25;;;20.64;36.17
7768;BME280;3928;42.626;23.382;2023-03-23T09:53:02;94260.09;;;21.21;35.24
7768;BME280;3928;42.626;23.382;2023-03-23T09:55:31;94256.34;;;21.70;34.60
7768;BME280;3928;42.626;23.382;2023-03-23T09:58:02;94252.22;;;21.94;32.87
7768;BME280;3928;42.626;23.382;2023-03-23T10:00:37;94272.81;;;22.41;33.36
7768;BME280;3928;42.626;23.382;2023-03-23T10:03:13;94258.50;;;22.47;31.07
7768;BME280;3928;42.626;23.382;2023-03-23T10:05:42;94248.22;;;21.60;32.14
7768;BME280;3928;42.626;23.382;2023-03-23T10:08:13;94254.81;;;21.37;32.72
7768;BME280;3928;42.626;23.382;2023-03-23T10:10:47;94255.31;;;21.72;33.25
7768;BME280;3928;42.626;23.382;2023-03-23T10:13:23;94245.34;;;21.93;33.32
7768;BME280;3928;42.626;23.382;2023-03-23T10:15:55;94252.59;;;22.31;32.29
7768;BME280;3928;42.626;23.382;2023-03-23T10:18:29;94244.41;;;22.76;31.59
7768;BME280;3928;42.626;23.382;2023-03-23T10:20:58;94241.34;;;22.70;31.48
7768;BME280;3928;42.626;23.382;2023-03-23T10:23:38;94242.31;;;22.82;31.16
7768;BME280;3928;42.626;23.382;2023-03-23T10:26:16;94231.66;;;22.31;30.73
7768;BME280;3928;42.626;23.382;2023-03-23T10:28:48;94236.91;;;22.31;31.70
7768;BME280;3928;42.626;23.382;2023-03-23T10:31:21;94240.53;;;22.82;31.52
7768;BME280;3928;42.626;23.382;2023-03-23T10:33:54;94240.06;;;23.42;30.90
7768;BME280;3928;42.626;23.382;2023-03-23T10:36:24;94232.25;;;23.80;30.27
7768;BME280;3928;42.626;23.382;2023-03-23T10:39:04;94230.72;;;24.02;29.25
7768;BME280;3928;42.626;23.382;2023-03-23T10:41:33;94230.91;;;24.61;29.01
7768;BME280;3928;42.626;23.382;2023-03-23T10:44:00;94227.94;;;25.13;28.50
7768;BME280;3928;42.626;23.382;2023-03-23T10:46:37;94231.25;;;25.50;29.56
7768;BME280;3928;42.626;23.382;2023-03-23T10:49:11;94230.84;;;25.90;29.04
7768;BME280;3928;42.626;23.382;2023-03-23T10:51:43;94236.94;;;26.24;28.23
7768;BME280;3928;42.626;23.382;2023-03-23T10:54:11;94233.59;;;26.44;27.30
7768;BME280;3928;42.626;23.382;2023-03-23T10:56:39;94221.00;;;26.59;27.44
7768;BME280;3928;42.626;23.382;2023-03-23T10:59:14;94181.09;;;26.32;27.20
7768;BME280;3928;42.626;23.382;2023-03-23T11:01:44;94233.44;;;26.57;27.00
7768;BME280;3928;42.626;23.382;2023-03-23T11:04:16;94236.22;;;26.33;26.65
7768;BME280;3928;42.626;23.382;2023-03-23T11:06:45;94231.06;;;26.32;26.32
7768;BME280;3928;42.626;23.382;2023-03-23T11:09:15;94229.44;;;25.97;26.88
7768;BME280;3928;42.626;23.382;2023-03-23T11:11:48;94226.31;;;25.70;27.90
7768;BME280;3928;42.626;23.382;2023-03-23T11:14:18;94224.16;;;25.97;26.92
7768;BME280;3928;42.626;23.382;2023-03-23T11:16:49;94216.72;;;26.13;26.79
7768;BME280;3928;42.626;23.382;2023-03-23T11:19:24;94211.97;;;26.41;27.79
7768;BME280;3928;42.626;23.382;2023-03-23T11:21:53;94217.25;;;26.73;26.56
7768;BME280;3928;42.626;23.382;2023-03-23T11:24:22;94206.16;;;27.01;25.58
7768;BME280;3928;42.626;23.382;2023-03-23T11:26:50;94205.88;;;27.36;24.98
7768;BME280;3928;42.626;23.382;2023-03-23T11:29:20;94185.91;;;27.44;25.32
7768;BME280;3928;42.626;23.382;2023-03-23T11:31:50;94201.59;;;26.60;25.40
7768;BME280;3928;42.626;23.382;2023-03-23T11:34:23;94190.91;;;25.62;26.20
7768;BME280;3928;42.626;23.382;2023-03-23T11:36:52;94192.84;;;25.14;27.02
7768;BME280;3928;42.626;23.382;2023-03-23T11:39:22;94189.88;;;25.19;27.72
7768;BME280;3928;42.626;23.382;2023-03-23T11:41:50;94185.75;;;25.50;28.42
7768;BME280;3928;42.626;23.382;2023-03-23T11:44:17;94177.78;;;25.85;28.20
7768;BME280;3928;42.626;23.382;2023-03-23T11:46:53;94179.28;;;26.43;27.13
7768;BME280;3928;42.626;23.382;2023-03-23T11:49:41;94183.31;;;26.91;25.76
7768;BME280;3928;42.626;23.382;2023-03-23T11:52:14;94162.75;;;27.17;25.01
7768;BME280;3928;42.626;23.382;2023-03-23T11:54:50;94177.38;;;27.51;25.71
7768;BME280;3928;42.626;23.382;2023-03-23T11:57:20;94168.09;;;27.78;24.75
7768;BME280;3928;42.626;23.382;2023-03-23T11:59:47;94171.56;;;28.09;24.62
7768;BME280;3928;42.626;23.382;2023-03-23T12:02:32;94161.53;;;28.43;24.11
7768;BME280;3928;42.626;23.382;2023-03-23T12:05:27;94169.19;;;28.75;23.87
7768;BME280;3928;42.626;23.382;2023-03-23T12:08:05;94166.13;;;28.50;24.06
7768;BME280;3928;42.626;23.382;2023-03-23T12:10:41;94170.03;;;28.56;24.06
7768;BME280;3928;42.626;23.382;2023-03-23T12:13:26;94157.81;;;28.84;23.69
7768;BME280;3928;42.626;23.382;2023-03-23T12:16:00;94165.03;;;29.21;23.27
7768;BME280;3928;42.626;23.382;2023-03-23T12:18:37;94160.03;;;29.37;23.65
7768;BME280;3928;42.626;23.382;2023-03-23T12:21:12;94163.63;;;29.55;22.48
7768;BME280;3928;42.626;23.382;2023-03-23T12:23:46;94161.31;;;29.80;22.80
7768;BME280;3928;42.626;23.382;2023-03-23T12:26:20;94163.47;;;29.94;22.65
7768;BME280;3928;42.626;23.382;2023-03-23T12:29:10;94159.94;;;30.13;22.58
7768;BME280;3928;42.626;23.382;2023-03-23T12:31:49;94154.09;;;30.37;22.46
7768;BME280;3928;42.626;23.382;2023-03-23T12:34:32;94151.56;;;30.45;22.31
7768;BME280;3928;42.626;23.382;2023-03-23T12:37:23;94152.13;;;30.39;21.69
7768;BME280;3928;42.626;23.382;2023-03-23T12:40:06;94144.19;;;30.39;22.09
7768;BME280;3928;42.626;23.382;2023-03-23T12:42:45;94147.03;;;30.55;21.60
7768;BME280;3928;42.626;23.382;2023-03-23T12:45:21;94148.38;;;30.59;21.09
7768;BME280;3928;42.626;23.382;2023-03-23T12:47:54;94153.66;;;30.69;21.66
7768;BME280;3928;42.626;23.382;2023-03-23T12:50:28;94148.69;;;30.56;21.32
7768;BME280;3928;42.626;23.382;2023-03-23T12:53:03;94139.94;;;30.28;21.43
7768;BME280;3928;42.626;23.382;2023-03-23T12:55:35;94136.03;;;30.50;21.89
7768;BME280;3928;42.626;23.382;2023-03-23T12:58:06;94142.13;;;30.78;21.08
7768;BME280;3928;42.626;23.382;2023-03-23T13:00:47;94146.84;;;30.84;21.25
7768;BME280;3928;42.626;23.382;2023-03-23T13:03:20;94138.72;;;31.03;21.26
7768;BME280;3928;42.626;23.382;2023-03-23T13:05:51;94118.97;;;30.98;21.42
7768;BME280;3928;42.626;23.382;2023-03-23T13:08:25;94139.47;;;31.31;21.13
7768;BME280;3928;42.626;23.382;2023-03-23T13:10:59;94130.84;;;31.29;21.08
7768;BME280;3928;42.626;23.382;2023-03-23T13:13:41;94131.44;;;31.23;20.78
7768;BME280;3928;42.626;23.382;2023-03-23T13:16:15;94130.75;;;30.50;21.09
7768;BME280;3928;42.626;23.382;2023-03-23T13:18:51;94127.34;;;30.12;21.98
7768;BME280;3928;42.626;23.382;2023-03-23T13:21:24;94129.31;;;30.10;22.21
7768;BME280;3928;42.626;23.382;2023-03-23T13:23:56;94125.06;;;29.90;21.58
7768;BME280;3928;42.626;23.382;2023-03-23T13:26:24;94132.09;;;29.72;22.23
7768;BME280;3928;42.626;23.382;2023-03-23T13:28:56;94122.72;;;29.30;22.87
7768;BME280;3928;42.626;23.382;2023-03-23T13:31:26;94124.09;;;29.54;22.75